createdAt,value
2023-04-08T00:00:00.607Z,6.3
2023-04-08T00:01:00.557Z,6.3
2023-04-08T00:02:00.610Z,6.3
2023-04-08T00:03:00.720Z,6.3
2023-04-08T00:04:00.615Z,6.3
2023-04-08T00:05:00.619Z,6.3
2023-04-08T00:06:00.539Z,6.2
2023-04-08T00:07:00.541Z,6.2
2023-04-08T00:08:00.552Z,6.2
2023-04-08T00:09:00.556Z,6.2
2023-04-08T00:10:00.577Z,6.2
2023-04-08T00:11:00.570Z,6.2
2023-04-08T00:12:00.554Z,6.2
2023-04-08T00:13:00.547Z,6.1
2023-04-08T00:14:00.569Z,6.1
2023-04-08T00:15:00.593Z,6.1
2023-04-08T00:16:00.553Z,6.1
2023-04-08T00:17:00.667Z,6.1
2023-04-08T00:18:00.658Z,6.1
2023-04-08T00:19:00.559Z,6.1
2023-04-08T00:20:00.602Z,6.1
2023-04-08T00:21:00.557Z,6.1
2023-04-08T00:22:00.556Z,6.1
2023-04-08T00:23:00.557Z,6.1
2023-04-08T00:24:00.562Z,6.1
2023-04-08T00:25:00.588Z,6.1
2023-04-08T00:26:00.567Z,6.1
2023-04-08T00:27:00.566Z,6.1
2023-04-08T00:28:00.592Z,6.1
2023-04-08T00:29:00.633Z,6.1
2023-04-08T00:30:00.615Z,6.1
2023-04-08T00:31:00.684Z,6
2023-04-08T00:32:00.572Z,6
2023-04-08T00:33:00.591Z,6
2023-04-08T00:34:00.572Z,5.9
2023-04-08T00:35:00.596Z,5.9
2023-04-08T00:36:00.619Z,5.9
2023-04-08T00:37:00.576Z,5.9
2023-04-08T00:38:00.575Z,5.8
2023-04-08T00:39:00.570Z,5.8
2023-04-08T00:40:00.604Z,5.8
2023-04-08T00:41:00.586Z,5.8
2023-04-08T00:42:00.601Z,5.8
2023-04-08T00:43:00.581Z,5.8
2023-04-08T00:44:00.576Z,5.8
2023-04-08T00:45:00.609Z,5.8
2023-04-08T00:48:00.537Z,5.8
2023-04-08T00:49:00.440Z,5.8
2023-04-08T00:50:00.483Z,5.8
2023-04-08T00:51:00.515Z,5.8
2023-04-08T00:52:00.448Z,5.8
2023-04-08T00:53:00.461Z,5.8
2023-04-08T00:54:00.484Z,5.8
2023-04-08T00:55:00.480Z,5.8
2023-04-08T00:56:00.470Z,5.7
2023-04-08T00:57:00.456Z,5.7
2023-04-08T00:58:00.467Z,5.6
2023-04-08T00:59:00.461Z,5.6
2023-04-08T01:00:00.487Z,5.6
2023-04-08T01:01:00.484Z,5.6
2023-04-08T01:02:00.609Z,5.6
2023-04-08T01:03:00.576Z,5.6
2023-04-08T01:04:00.542Z,5.6
2023-04-08T01:05:00.485Z,5.6
2023-04-08T01:06:00.501Z,5.6
2023-04-08T01:07:00.484Z,5.5
2023-04-08T01:08:00.472Z,5.5
2023-04-08T01:09:00.497Z,5.6
2023-04-08T01:10:00.498Z,5.6
2023-04-08T01:11:00.501Z,5.6
2023-04-08T01:12:00.482Z,5.6
2023-04-08T01:13:00.478Z,5.6
2023-04-08T01:14:00.480Z,5.6
2023-04-08T01:15:00.503Z,5.6
2023-04-08T01:16:00.552Z,5.6
2023-04-08T01:17:00.471Z,5.6
2023-04-08T01:18:00.558Z,5.5
2023-04-08T01:19:00.473Z,5.5
2023-04-08T01:20:00.526Z,5.4
2023-04-08T01:21:00.496Z,5.4
2023-04-08T01:22:00.479Z,5.4
2023-04-08T01:23:00.487Z,5.4
2023-04-08T01:24:00.478Z,5.4
2023-04-08T01:25:00.514Z,5.4
2023-04-08T01:26:00.516Z,5.4
2023-04-08T01:27:00.494Z,5.4
2023-04-08T01:28:00.484Z,5.4
2023-04-08T01:29:00.484Z,5.4
2023-04-08T01:30:00.524Z,5.4
2023-04-08T01:31:00.580Z,5.4
2023-04-08T01:32:00.498Z,5.4
2023-04-08T01:33:00.519Z,5.3
2023-04-08T01:34:00.491Z,5.3
2023-04-08T01:35:00.515Z,5.2
2023-04-08T01:36:00.578Z,5.2
2023-04-08T01:37:00.508Z,5.2
2023-04-08T01:38:00.511Z,5.2
2023-04-08T01:39:00.502Z,5.2
2023-04-08T01:40:00.516Z,5.2
2023-04-08T01:41:00.524Z,5.2
2023-04-08T01:42:00.515Z,5.2
2023-04-08T01:43:00.530Z,5.2
2023-04-08T01:44:00.510Z,5.2
2023-04-08T01:45:00.509Z,5.2
2023-04-08T01:46:00.516Z,5.2
2023-04-08T01:47:00.561Z,5.2
2023-04-08T01:48:00.537Z,5.2
2023-04-08T01:49:00.518Z,5.2
2023-04-08T01:50:00.507Z,5.2
2023-04-08T01:51:00.509Z,5.2
2023-04-08T01:52:00.541Z,5.1
2023-04-08T01:53:00.525Z,5.1
2023-04-08T01:54:00.542Z,5.1
2023-04-08T01:55:00.514Z,5.1
2023-04-08T01:56:00.523Z,5.1
2023-04-08T01:57:00.533Z,5.1
2023-04-08T01:58:00.543Z,5.1
2023-04-08T01:59:00.526Z,5.1
2023-04-08T02:00:00.553Z,5.1
2023-04-08T02:01:01.448Z,5.1
2023-04-08T02:02:01.566Z,5.1
2023-04-08T02:03:01.678Z,5.1
2023-04-08T02:04:01.549Z,5.1
2023-04-08T02:05:01.487Z,5.1
2023-04-08T02:06:01.447Z,5.1
2023-04-08T02:07:01.448Z,5.1
2023-04-08T02:08:01.464Z,5.1
2023-04-08T02:09:01.488Z,5.1
2023-04-08T02:10:01.479Z,5.1
2023-04-08T02:11:01.464Z,5.1
2023-04-08T02:12:01.476Z,5.1
2023-04-08T02:13:01.484Z,5
2023-04-08T02:14:01.515Z,5
2023-04-08T02:15:01.467Z,5
2023-04-08T02:16:01.546Z,5
2023-04-08T02:17:01.458Z,5
2023-04-08T02:18:01.485Z,5
2023-04-08T02:19:01.484Z,5
2023-04-08T02:20:01.509Z,5
2023-04-08T02:21:01.451Z,5
2023-04-08T02:22:01.453Z,5
2023-04-08T02:23:01.467Z,5
2023-04-08T02:24:03.647Z,5
2023-04-08T02:25:01.454Z,5
2023-04-08T02:26:01.466Z,4.9
2023-04-08T02:27:01.466Z,4.9
2023-04-08T02:28:01.477Z,4.9
2023-04-08T02:29:01.478Z,4.9
2023-04-08T02:30:01.526Z,4.9
2023-04-08T02:31:01.477Z,4.9
2023-04-08T02:32:01.553Z,4.9
2023-04-08T02:33:01.534Z,4.9
2023-04-08T02:34:01.471Z,4.9
2023-04-08T02:35:01.488Z,4.9
2023-04-08T02:36:01.529Z,5
2023-04-08T02:37:01.488Z,5
2023-04-08T02:38:01.497Z,5
2023-04-08T02:39:01.472Z,5
2023-04-08T02:40:01.519Z,5
2023-04-08T02:41:01.499Z,5.1
2023-04-08T02:42:01.497Z,5.1
2023-04-08T02:43:01.519Z,5.1
2023-04-08T02:44:01.480Z,5.1
2023-04-08T02:45:01.489Z,5.1
2023-04-08T02:46:01.510Z,5.1
2023-04-08T02:47:01.504Z,5.1
2023-04-08T02:48:01.560Z,5.1
2023-04-08T02:49:01.484Z,5.1
2023-04-08T02:50:01.529Z,5.1
2023-04-08T02:51:01.505Z,5.1
2023-04-08T02:52:01.493Z,5.1
2023-04-08T02:53:01.534Z,5.1
2023-04-08T02:54:01.490Z,5.1
2023-04-08T02:55:01.491Z,5.1
2023-04-08T02:56:01.526Z,5.2
2023-04-08T02:57:01.497Z,5.2
2023-04-08T02:58:01.543Z,5.2
2023-04-08T02:59:01.492Z,5.2
2023-04-08T03:00:01.515Z,5.2
2023-04-08T03:01:01.538Z,5.2
2023-04-08T03:02:01.596Z,5.2
2023-04-08T03:03:01.810Z,5.2
2023-04-08T03:04:01.515Z,5.2
2023-04-08T03:05:01.624Z,5.2
2023-04-08T03:06:01.504Z,5.2
2023-04-08T03:07:01.500Z,5.2
2023-04-08T03:08:01.532Z,5.2
2023-04-08T03:09:01.566Z,5.2
2023-04-08T03:10:01.540Z,5.2
2023-04-08T03:11:01.525Z,5.2
2023-04-08T03:12:01.522Z,5.2
2023-04-08T03:13:01.586Z,5.2
2023-04-08T03:14:01.526Z,5.2
2023-04-08T03:15:01.522Z,5.2
2023-04-08T03:16:01.577Z,5.2
2023-04-08T03:17:01.556Z,5.2
2023-04-08T03:18:01.627Z,5.2
2023-04-08T03:19:01.524Z,5.1
2023-04-08T03:20:01.603Z,5.1
2023-04-08T03:21:01.557Z,5.1
2023-04-08T03:22:01.525Z,5.1
2023-04-08T03:23:01.543Z,5.1
2023-04-08T03:24:01.539Z,5.1
2023-04-08T03:25:01.578Z,5.1
2023-04-08T03:26:01.549Z,5.1
2023-04-08T03:27:01.523Z,5.1
2023-04-08T03:28:01.571Z,5.1
2023-04-08T03:29:01.543Z,5.1
2023-04-08T03:30:01.582Z,5.1
2023-04-08T03:31:01.563Z,5.1
2023-04-08T03:32:01.572Z,5.1
2023-04-08T03:33:01.620Z,5
2023-04-08T03:34:01.530Z,5
2023-04-08T03:35:01.568Z,5
2023-04-08T03:36:01.586Z,5
2023-04-08T03:37:01.542Z,5.1
2023-04-08T03:38:01.590Z,5.1
2023-04-08T03:39:01.549Z,5.1
2023-04-08T03:40:01.549Z,5.1
2023-04-08T03:41:01.572Z,5.1
2023-04-08T03:42:01.537Z,5.1
2023-04-08T03:43:01.560Z,5.1
2023-04-08T03:44:01.585Z,5.1
2023-04-08T03:45:01.584Z,5
2023-04-08T03:46:01.589Z,5
2023-04-08T03:47:01.625Z,5.1
2023-04-08T03:48:01.630Z,5
2023-04-08T03:49:01.546Z,5.1
2023-04-08T03:50:01.657Z,5.1
2023-04-08T03:51:01.729Z,5.1
2023-04-08T03:52:01.586Z,5.1
2023-04-08T03:53:01.547Z,5.1
2023-04-08T03:54:01.595Z,5.1
2023-04-08T03:55:01.567Z,5.1
2023-04-08T03:56:01.588Z,5.1
2023-04-08T03:57:01.600Z,5.1
2023-04-08T03:58:01.577Z,5.1
2023-04-08T03:59:01.564Z,5.1
2023-04-08T04:00:01.575Z,5.1
2023-04-08T04:01:01.562Z,5.1
2023-04-08T04:02:01.622Z,5.1
2023-04-08T04:03:01.656Z,5.1
2023-04-08T04:04:02.030Z,5.1
2023-04-08T04:05:01.865Z,5.1
2023-04-08T04:06:01.556Z,5.1
2023-04-08T04:07:01.582Z,5.1
2023-04-08T04:08:01.560Z,5.1
2023-04-08T04:09:01.580Z,5.1
2023-04-08T04:10:01.705Z,5.1
2023-04-08T04:11:00.360Z,5.2
2023-04-08T04:12:00.350Z,5.2
2023-04-08T04:13:00.367Z,5.2
2023-04-08T04:14:00.368Z,5.2
2023-04-08T04:15:00.346Z,5.2
2023-04-08T04:16:00.481Z,5.2
2023-04-08T04:17:00.369Z,5.2
2023-04-08T04:18:00.409Z,5.2
2023-04-08T04:19:00.477Z,5.3
2023-04-08T04:20:00.381Z,5.3
2023-04-08T04:21:00.355Z,5.3
2023-04-08T04:22:00.355Z,5.3
2023-04-08T04:23:00.378Z,5.3
2023-04-08T04:24:00.360Z,5.3
2023-04-08T04:25:00.367Z,5.3
2023-04-08T04:26:00.377Z,5.3
2023-04-08T04:27:00.375Z,5.3
2023-04-08T04:28:00.381Z,5.3
2023-04-08T04:29:00.382Z,5.3
2023-04-08T04:30:00.402Z,5.3
2023-04-08T04:31:00.487Z,5.3
2023-04-08T04:32:00.386Z,5.3
2023-04-08T04:33:00.414Z,5.2
2023-04-08T04:34:00.372Z,5.3
2023-04-08T04:35:00.388Z,5.3
2023-04-08T04:36:00.421Z,5.3
2023-04-08T04:37:00.378Z,5.3
2023-04-08T04:38:00.400Z,5.4
2023-04-08T04:39:00.409Z,5.3
2023-04-08T04:40:00.388Z,5.4
2023-04-08T04:41:00.404Z,5.4
2023-04-08T04:42:00.377Z,5.4
2023-04-08T04:43:00.375Z,5.4
2023-04-08T04:44:00.395Z,5.4
2023-04-08T04:45:00.400Z,5.4
2023-04-08T04:46:00.479Z,5.4
2023-04-08T04:47:00.393Z,5.4
2023-04-08T04:48:00.415Z,5.4
2023-04-08T04:49:00.381Z,5.4
2023-04-08T04:50:00.399Z,5.4
2023-04-08T04:51:00.409Z,5.4
2023-04-08T04:52:00.381Z,5.5
2023-04-08T04:53:00.422Z,5.5
2023-04-08T04:54:00.420Z,5.5
2023-04-08T04:55:00.411Z,5.5
2023-04-08T04:56:00.416Z,5.5
2023-04-08T04:57:00.402Z,5.5
2023-04-08T04:58:00.409Z,5.5
2023-04-08T04:59:00.418Z,5.5
2023-04-08T05:00:01.040Z,5.4
2023-04-08T05:01:00.422Z,5.4
2023-04-08T05:02:00.546Z,5.4
2023-04-08T05:03:00.603Z,5.4
2023-04-08T05:04:00.420Z,5.4
2023-04-08T05:05:00.514Z,5.4
2023-04-08T05:06:00.421Z,5.4
2023-04-08T05:07:00.424Z,5.4
2023-04-08T05:08:00.406Z,5.5
2023-04-08T05:09:00.428Z,5.5
2023-04-08T05:10:00.448Z,5.5
2023-04-08T05:11:00.429Z,5.5
2023-04-08T05:12:00.432Z,5.5
2023-04-08T05:13:00.421Z,5.5
2023-04-08T05:14:00.415Z,5.5
2023-04-08T05:15:00.432Z,5.6
2023-04-08T05:16:00.490Z,5.6
2023-04-08T05:17:00.435Z,5.6
2023-04-08T05:18:00.490Z,5.6
2023-04-08T05:19:00.480Z,5.6
2023-04-08T05:20:00.473Z,5.6
2023-04-08T05:21:00.458Z,5.6
2023-04-08T05:22:00.434Z,5.6
2023-04-08T05:23:00.445Z,5.5
2023-04-08T05:24:00.468Z,5.5
2023-04-08T05:25:00.442Z,5.5
2023-04-08T05:26:00.447Z,5.5
2023-04-08T05:27:00.440Z,5.5
2023-04-08T05:28:00.469Z,5.5
2023-04-08T05:29:00.456Z,5.6
2023-04-08T05:30:00.457Z,5.6
2023-04-08T05:31:00.495Z,5.6
2023-04-08T05:32:00.450Z,5.7
2023-04-08T05:33:00.999Z,5.7
2023-04-08T05:34:00.492Z,5.7
2023-04-08T05:35:00.466Z,5.7
2023-04-08T05:36:00.500Z,5.8
2023-04-08T05:37:00.437Z,5.8
2023-04-08T05:38:00.460Z,5.8
2023-04-08T05:39:02.118Z,5.8
2023-04-08T05:40:00.461Z,5.8
2023-04-08T05:41:00.477Z,5.9
2023-04-08T05:42:00.445Z,5.9
2023-04-08T05:43:00.490Z,5.9
2023-04-08T05:44:00.449Z,5.9
2023-04-08T05:45:00.462Z,6
2023-04-08T05:46:00.470Z,6
2023-04-08T05:47:00.660Z,6
2023-04-08T05:48:00.506Z,6
2023-04-08T05:49:00.477Z,6.1
2023-04-08T05:50:00.487Z,6.1
2023-04-08T05:51:00.481Z,6.1
2023-04-08T05:52:00.473Z,6.1
2023-04-08T05:53:00.457Z,6.1
2023-04-08T05:54:00.475Z,6.2
2023-04-08T05:55:00.479Z,6.2
2023-04-08T05:56:00.468Z,6.2
2023-04-08T05:57:00.459Z,6.2
2023-04-08T05:58:00.465Z,6.3
2023-04-08T05:59:00.459Z,6.3
2023-04-08T06:00:00.487Z,6.4
2023-04-08T06:01:00.462Z,6.4
2023-04-08T06:02:00.599Z,6.4
2023-04-08T06:03:00.764Z,6.4
2023-04-08T06:04:00.675Z,6.5
2023-04-08T06:05:00.516Z,6.5
2023-04-08T06:06:00.464Z,6.5
2023-04-08T06:07:00.464Z,6.6
2023-04-08T06:08:00.466Z,6.5
2023-04-08T06:09:00.481Z,6.6
2023-04-08T06:10:00.485Z,6.6
2023-04-08T06:11:00.489Z,6.6
2023-04-08T06:12:00.475Z,6.6
2023-04-08T06:13:00.467Z,6.6
2023-04-08T06:14:00.527Z,6.6
2023-04-08T06:15:00.487Z,6.6
2023-04-08T06:16:00.471Z,6.6
2023-04-08T06:17:00.508Z,6.6
2023-04-08T06:18:00.553Z,6.6
2023-04-08T06:19:00.485Z,6.6
2023-04-08T06:20:00.495Z,6.6
2023-04-08T06:21:00.546Z,6.6
2023-04-08T06:22:00.487Z,6.6
2023-04-08T06:23:00.476Z,6.6
2023-04-08T06:24:00.498Z,6.7
2023-04-08T06:25:00.498Z,6.7
2023-04-08T06:26:00.498Z,6.7
2023-04-08T06:27:00.484Z,6.7
2023-04-08T06:28:00.482Z,6.8
2023-04-08T06:29:00.500Z,6.8
2023-04-08T06:30:00.494Z,6.8
2023-04-08T06:31:00.513Z,6.9
2023-04-08T06:32:00.595Z,6.9
2023-04-08T06:33:00.519Z,6.9
2023-04-08T06:34:00.491Z,6.9
2023-04-08T06:35:00.516Z,7
2023-04-08T06:36:00.522Z,7
2023-04-08T06:37:00.493Z,7.1
2023-04-08T06:38:00.512Z,7.1
2023-04-08T06:39:00.509Z,7.1
2023-04-08T06:40:00.515Z,7.1
2023-04-08T06:41:00.493Z,7.2
2023-04-08T06:42:00.510Z,7.2
2023-04-08T06:43:00.500Z,7.2
2023-04-08T06:44:00.525Z,7.2
2023-04-08T06:45:00.517Z,7.2
2023-04-08T06:46:00.565Z,7.3
2023-04-08T06:47:00.536Z,7.3
2023-04-08T06:48:00.728Z,7.4
2023-04-08T06:49:00.499Z,7.4
2023-04-08T06:50:00.544Z,7.4
2023-04-08T06:51:00.516Z,7.4
2023-04-08T06:52:00.525Z,7.4
2023-04-08T06:53:00.524Z,7.5
2023-04-08T06:54:00.514Z,7.6
2023-04-08T06:55:00.528Z,7.6
2023-04-08T06:56:00.508Z,7.6
2023-04-08T06:57:00.516Z,7.6
2023-04-08T06:58:00.539Z,7.6
2023-04-08T06:59:00.521Z,7.7
2023-04-08T07:00:00.554Z,7.7
2023-04-08T07:01:00.630Z,7.7
2023-04-08T07:02:00.681Z,7.7
2023-04-08T07:03:00.579Z,7.8
2023-04-08T07:04:00.528Z,7.8
2023-04-08T07:05:00.545Z,7.8
2023-04-08T07:06:00.543Z,7.8
2023-04-08T07:07:00.542Z,7.9
2023-04-08T07:08:00.524Z,7.9
2023-04-08T07:09:00.531Z,7.9
2023-04-08T07:10:00.524Z,7.9
2023-04-08T07:11:00.553Z,7.9
2023-04-08T07:12:00.532Z,7.9
2023-04-08T07:13:00.535Z,8
2023-04-08T07:14:00.537Z,8.1
2023-04-08T07:15:00.546Z,8.1
2023-04-08T07:16:00.554Z,8.1
2023-04-08T07:17:00.626Z,8.2
2023-04-08T07:18:00.591Z,8.2
2023-04-08T07:19:00.532Z,8.2
2023-04-08T07:20:00.558Z,8.2
2023-04-08T07:21:00.560Z,8.2
2023-04-08T07:22:00.560Z,8.3
2023-04-08T07:23:00.544Z,8.3
2023-04-08T07:24:00.540Z,8.3
2023-04-08T07:25:00.541Z,8.3
2023-04-08T07:26:00.569Z,8.4
2023-04-08T07:27:00.565Z,8.4
2023-04-08T07:28:00.543Z,8.5
2023-04-08T07:29:00.560Z,8.5
2023-04-08T07:30:00.566Z,8.6
2023-04-08T07:31:00.612Z,8.6
2023-04-08T07:32:00.551Z,8.6
2023-04-08T07:33:01.105Z,8.6
2023-04-08T07:34:00.553Z,8.6
2023-04-08T07:35:00.574Z,8.6
2023-04-08T07:36:00.636Z,8.6
2023-04-08T07:37:00.562Z,8.6
2023-04-08T07:38:00.578Z,8.6
2023-04-08T07:39:00.564Z,8.6
2023-04-08T07:40:00.599Z,8.6
2023-04-08T07:41:00.587Z,8.7
2023-04-08T07:42:00.577Z,8.8
2023-04-08T07:43:00.566Z,8.8
2023-04-08T07:44:00.608Z,8.8
2023-04-08T07:45:00.617Z,8.7
2023-04-08T07:46:00.611Z,8.8
2023-04-08T07:47:00.571Z,8.7
2023-04-08T07:48:00.600Z,8.7
2023-04-08T07:49:00.584Z,8.7
2023-04-08T07:50:00.590Z,8.8
2023-04-08T07:51:08.767Z,8.8
2023-04-08T07:52:00.565Z,8.8
2023-04-08T07:53:00.572Z,8.8
2023-04-08T07:54:00.566Z,8.9
2023-04-08T07:55:00.589Z,8.9
2023-04-08T07:56:00.602Z,8.9
2023-04-08T07:57:00.578Z,8.9
2023-04-08T07:58:00.577Z,8.9
2023-04-08T07:59:00.572Z,8.9
2023-04-08T08:00:00.597Z,8.9
2023-04-08T08:01:00.604Z,9
2023-04-08T08:02:00.653Z,9
2023-04-08T08:03:00.672Z,9
2023-04-08T08:04:00.676Z,9.1
2023-04-08T08:05:00.659Z,9.1
2023-04-08T08:06:00.613Z,9.1
2023-04-08T08:07:00.582Z,9.1
2023-04-08T08:08:00.591Z,9.1
2023-04-08T08:09:00.619Z,9.1
2023-04-08T08:10:00.584Z,9.1
2023-04-08T08:11:00.622Z,9.1
2023-04-08T08:12:00.595Z,9.1
2023-04-08T08:13:00.587Z,9.1
2023-04-08T08:14:00.607Z,9.2
2023-04-08T08:15:00.596Z,9.2
2023-04-08T08:16:00.677Z,9.2
2023-04-08T08:17:00.594Z,9.2
2023-04-08T08:18:00.635Z,9.2
2023-04-08T08:19:00.604Z,9.2
2023-04-08T08:20:00.598Z,9.2
2023-04-08T08:21:00.621Z,9.2
2023-04-08T08:22:00.617Z,9.2
2023-04-08T08:23:00.606Z,9.2
2023-04-08T08:24:00.625Z,9.3
2023-04-08T08:25:00.609Z,9.4
2023-04-08T08:26:00.642Z,9.4
2023-04-08T08:27:00.618Z,9.4
2023-04-08T08:28:00.605Z,9.5
2023-04-08T08:29:00.643Z,9.5
2023-04-08T08:30:00.611Z,9.5
2023-04-08T08:31:00.628Z,9.5
2023-04-08T08:32:00.612Z,9.5
2023-04-08T08:33:00.693Z,9.5
2023-04-08T08:34:00.638Z,9.5
2023-04-08T08:35:00.610Z,9.5
2023-04-08T08:36:00.720Z,9.5
2023-04-08T08:37:00.633Z,9.5
2023-04-08T08:38:00.617Z,9.5
2023-04-08T08:39:00.641Z,9.5
2023-04-08T08:40:00.630Z,9.5
2023-04-08T08:41:00.666Z,9.4
2023-04-08T08:42:00.644Z,9.4
2023-04-08T08:43:00.621Z,9.4
2023-04-08T08:44:00.647Z,9.4
2023-04-08T08:45:00.641Z,9.4
2023-04-08T08:46:00.627Z,9.3
2023-04-08T08:47:00.689Z,9.3
2023-04-08T08:48:00.665Z,9.3
2023-04-08T08:49:00.649Z,9.3
2023-04-08T08:50:00.638Z,9.3
2023-04-08T08:51:00.657Z,9.3
2023-04-08T08:52:00.648Z,9.3
2023-04-08T08:53:00.637Z,9.4
2023-04-08T08:54:00.656Z,9.4
2023-04-08T08:55:00.657Z,9.4
2023-04-08T08:56:17.274Z,9.4
2023-04-08T08:57:00.637Z,9.4
2023-04-08T08:58:00.645Z,9.4
2023-04-08T08:59:00.659Z,9.4
2023-04-08T09:00:00.651Z,9.4
2023-04-08T09:01:00.671Z,9.4
2023-04-08T09:02:00.700Z,9.4
2023-04-08T09:03:00.907Z,9.5
2023-04-08T09:04:00.704Z,9.5
2023-04-08T09:05:00.780Z,9.6
2023-04-08T09:06:00.720Z,9.6
2023-04-08T09:07:00.650Z,9.6
2023-04-08T09:08:00.676Z,9.6
2023-04-08T09:09:00.672Z,9.6
2023-04-08T09:10:00.654Z,9.6
2023-04-08T09:11:00.706Z,9.6
2023-04-08T09:12:00.648Z,9.6
2023-04-08T09:13:00.649Z,9.6
2023-04-08T09:14:00.683Z,9.6
2023-04-08T09:15:00.653Z,9.6
2023-04-08T09:16:00.692Z,9.6
2023-04-08T09:17:00.663Z,9.6
2023-04-08T09:18:00.708Z,9.6
2023-04-08T09:19:00.660Z,9.6
2023-04-08T09:20:00.681Z,9.6
2023-04-08T09:21:00.688Z,9.6
2023-04-08T09:22:00.691Z,9.6
2023-04-08T09:23:00.668Z,9.6
2023-04-08T09:24:00.672Z,9.7
2023-04-08T09:25:00.665Z,9.8
2023-04-08T09:26:00.689Z,9.8
2023-04-08T09:27:00.696Z,9.9
2023-04-08T09:28:00.682Z,9.9
2023-04-08T09:29:04.085Z,9.9
2023-04-08T09:30:00.674Z,10
2023-04-08T09:31:00.694Z,10
2023-04-08T09:32:00.810Z,10.1
2023-04-08T09:33:00.729Z,10.1
2023-04-08T09:34:00.692Z,10.1
2023-04-08T09:35:00.719Z,10.2
2023-04-08T09:36:00.742Z,10.2
2023-04-08T09:37:00.706Z,10.2
2023-04-08T09:38:00.682Z,10.2
2023-04-08T09:39:00.692Z,10.2
2023-04-08T09:40:00.756Z,10.2
2023-04-08T09:41:00.709Z,10.2
2023-04-08T09:42:00.699Z,10.2
2023-04-08T09:43:00.684Z,10.2
2023-04-08T09:44:00.715Z,10.1
2023-04-08T09:45:00.716Z,10.1
2023-04-08T09:46:00.764Z,10.1
2023-04-08T09:47:00.693Z,10.1
2023-04-08T09:48:00.719Z,10.2
2023-04-08T09:49:00.690Z,10.2
2023-04-08T09:50:00.711Z,10.3
2023-04-08T09:51:00.724Z,10.3
2023-04-08T09:52:00.693Z,10.4
2023-04-08T09:53:00.695Z,10.5
2023-04-08T09:54:00.705Z,10.5
2023-04-08T09:55:00.705Z,10.5
2023-04-08T09:56:00.718Z,10.6
2023-04-08T09:57:00.701Z,10.5
2023-04-08T09:58:00.701Z,10.4
2023-04-08T09:59:00.726Z,10.4
2023-04-08T10:00:00.708Z,10.5
2023-04-08T10:01:00.742Z,10.5
2023-04-08T10:02:00.783Z,10.6
2023-04-08T10:03:00.920Z,10.6
2023-04-08T10:04:00.788Z,10.7
2023-04-08T10:05:00.864Z,10.6
2023-04-08T10:06:00.743Z,10.6
2023-04-08T10:07:00.719Z,10.6
2023-04-08T10:08:00.725Z,10.6
2023-04-08T10:09:00.715Z,10.6
2023-04-08T10:10:00.746Z,10.6
2023-04-08T10:11:00.721Z,10.6
2023-04-08T10:12:00.670Z,10.6
2023-04-08T10:13:00.646Z,10.6
2023-04-08T10:14:00.624Z,10.7
2023-04-08T10:15:00.609Z,10.8
2023-04-08T10:16:00.577Z,10.8
2023-04-08T10:17:00.621Z,10.9
2023-04-08T10:18:00.504Z,11
2023-04-08T10:19:00.478Z,11.1
2023-04-08T10:20:00.462Z,11.1
2023-04-08T10:21:00.424Z,11.2
2023-04-08T10:22:00.389Z,11.2
2023-04-08T10:23:00.345Z,11.2
2023-04-08T10:24:00.319Z,11.3
2023-04-08T10:25:00.304Z,11.3
2023-04-08T10:26:00.314Z,11.3
2023-04-08T10:27:00.321Z,11.4
2023-04-08T10:28:00.300Z,11.4
2023-04-08T10:29:00.321Z,11.5
2023-04-08T10:30:00.310Z,11.5
2023-04-08T10:31:00.333Z,11.5
2023-04-08T10:32:00.369Z,11.5
2023-04-08T10:33:00.422Z,11.6
2023-04-08T10:34:00.323Z,11.6
2023-04-08T10:35:00.326Z,11.6
2023-04-08T10:36:00.445Z,11.6
2023-04-08T10:37:00.317Z,11.7
2023-04-08T10:38:00.299Z,11.7
2023-04-08T10:39:00.311Z,11.8
2023-04-08T10:40:00.320Z,11.8
2023-04-08T10:41:00.328Z,11.9
2023-04-08T10:42:00.328Z,11.9
2023-04-08T10:43:00.318Z,12
2023-04-08T10:44:00.325Z,12.1
2023-04-08T10:45:00.331Z,12.2
2023-04-08T10:46:00.389Z,12.2
2023-04-08T10:47:00.323Z,12.1
2023-04-08T10:48:00.357Z,12.2
2023-04-08T10:49:00.328Z,12.4
2023-04-08T10:50:00.350Z,12.6
2023-04-08T10:51:00.339Z,12.6
2023-04-08T10:52:00.319Z,12.7
2023-04-08T10:53:00.317Z,12.8
2023-04-08T10:54:00.339Z,12.8
2023-04-08T10:55:00.336Z,12.9
2023-04-08T10:56:00.325Z,12.9
2023-04-08T10:57:00.345Z,12.9
2023-04-08T10:58:00.327Z,12.8
2023-04-08T10:59:00.322Z,12.9
2023-04-08T11:00:00.384Z,12.9
2023-04-08T11:01:00.353Z,12.8
2023-04-08T11:02:00.533Z,12.8
2023-04-08T11:03:00.425Z,12.8
2023-04-08T11:04:00.467Z,12.7
2023-04-08T11:05:00.336Z,12.8
2023-04-08T11:06:00.349Z,12.8
2023-04-08T11:07:00.344Z,12.8
2023-04-08T11:08:00.360Z,12.6
2023-04-08T11:09:00.339Z,12.6
2023-04-08T11:10:00.350Z,12.6
2023-04-08T11:11:00.354Z,12.5
2023-04-08T11:12:00.362Z,12.4
2023-04-08T11:13:00.358Z,12.4
2023-04-08T11:14:00.360Z,12.4
2023-04-08T11:15:00.357Z,12.4
2023-04-08T11:16:00.628Z,12.4
2023-04-08T11:17:00.367Z,12.4
2023-04-08T11:18:00.384Z,12.5
2023-04-08T11:19:00.350Z,12.5
2023-04-08T11:20:00.377Z,12.4
2023-04-08T11:21:00.580Z,12.4
2023-04-08T11:22:00.355Z,12.4
2023-04-08T11:23:00.353Z,12.5
2023-04-08T11:24:00.352Z,12.6
2023-04-08T11:25:00.376Z,12.6
2023-04-08T11:26:00.382Z,12.6
2023-04-08T11:27:00.380Z,12.7
2023-04-08T11:28:00.383Z,12.8
2023-04-08T11:29:00.356Z,12.8
2023-04-08T11:30:00.372Z,12.9
2023-04-08T11:31:00.432Z,12.8
2023-04-08T11:32:00.359Z,12.8
2023-04-08T11:33:00.409Z,12.8
2023-04-08T11:34:00.377Z,12.8
2023-04-08T11:35:00.372Z,12.9
2023-04-08T11:36:00.426Z,12.9
2023-04-08T11:37:00.376Z,13.1
2023-04-08T11:38:00.383Z,13.1
2023-04-08T11:39:00.444Z,13
2023-04-08T11:40:00.396Z,12.9
2023-04-08T11:41:00.670Z,12.9
2023-04-08T11:42:00.389Z,12.9
2023-04-08T11:43:00.379Z,12.9
2023-04-08T11:44:00.370Z,12.9
2023-04-08T11:45:00.375Z,13
2023-04-08T11:46:00.437Z,12.9
2023-04-08T11:47:00.398Z,12.9
2023-04-08T11:48:01.165Z,12.8
2023-04-08T11:49:00.390Z,12.8
2023-04-08T11:50:00.383Z,12.8
2023-04-08T11:51:00.398Z,12.7
2023-04-08T11:52:00.415Z,12.7
2023-04-08T11:53:00.385Z,12.5
2023-04-08T11:54:00.402Z,12.4
2023-04-08T11:55:00.404Z,12.4
2023-04-08T11:56:00.419Z,12.2
2023-04-08T11:57:00.407Z,12.1
2023-04-08T11:58:00.391Z,12.1
2023-04-08T11:59:00.402Z,12.1
2023-04-08T12:00:00.412Z,12.1
2023-04-08T12:01:00.409Z,12.1
2023-04-08T12:02:00.467Z,12.1
2023-04-08T12:03:00.513Z,12.1
2023-04-08T12:04:00.687Z,12.1
2023-04-08T12:05:00.442Z,12.1
2023-04-08T12:06:00.429Z,12.1
2023-04-08T12:07:00.414Z,12.1
2023-04-08T12:08:00.414Z,12.1
2023-04-08T12:09:00.399Z,12.1
2023-04-08T12:10:00.417Z,12.1
2023-04-08T12:11:12.877Z,12.1
2023-04-08T12:12:00.428Z,12.1
2023-04-08T12:13:00.429Z,12
2023-04-08T12:14:00.405Z,12
2023-04-08T12:15:00.423Z,12
2023-04-08T12:16:00.457Z,12
2023-04-08T12:17:00.465Z,12
2023-04-08T12:18:00.456Z,12.1
2023-04-08T12:19:00.458Z,12.1
2023-04-08T12:20:00.445Z,12
2023-04-08T12:21:00.476Z,11.9
2023-04-08T12:22:00.422Z,11.8
2023-04-08T12:23:00.417Z,11.8
2023-04-08T12:24:00.463Z,11.7
2023-04-08T12:25:00.414Z,11.7
2023-04-08T12:26:00.444Z,11.7
2023-04-08T12:27:00.446Z,11.7
2023-04-08T12:28:00.420Z,11.7
2023-04-08T12:29:00.424Z,11.6
2023-04-08T12:30:00.483Z,11.5
2023-04-08T12:31:00.443Z,11.5
2023-04-08T12:32:00.519Z,11.5
2023-04-08T12:33:00.477Z,11.5
2023-04-08T12:34:00.472Z,11.5
2023-04-08T12:35:00.556Z,11.5
2023-04-08T12:36:00.470Z,11.6
2023-04-08T12:37:00.447Z,11.6
2023-04-08T12:38:00.451Z,11.6
2023-04-08T12:39:00.453Z,11.6
2023-04-08T12:40:00.474Z,11.6
2023-04-08T12:41:00.459Z,11.6
2023-04-08T12:42:00.466Z,11.6
2023-04-08T12:43:00.464Z,11.6
2023-04-08T12:44:00.467Z,11.6
2023-04-08T12:45:00.480Z,11.6
2023-04-08T12:46:00.443Z,11.6
2023-04-08T12:47:00.492Z,11.6
2023-04-08T12:48:00.493Z,11.6
2023-04-08T12:49:04.632Z,11.6
2023-04-08T12:50:00.486Z,11.6
2023-04-08T12:51:00.452Z,11.6
2023-04-08T12:52:00.457Z,11.6
2023-04-08T12:53:00.495Z,11.6
2023-04-08T12:54:00.476Z,11.6
2023-04-08T12:55:00.478Z,11.6
2023-04-08T12:56:00.488Z,11.6
2023-04-08T12:57:00.472Z,11.6
2023-04-08T12:58:00.480Z,11.6
2023-04-08T12:59:00.481Z,11.6
2023-04-08T13:00:00.501Z,11.6
2023-04-08T13:01:00.557Z,11.6
2023-04-08T13:02:00.595Z,11.6
2023-04-08T13:03:00.582Z,11.6
2023-04-08T13:04:00.585Z,11.6
2023-04-08T13:05:00.501Z,11.6
2023-04-08T13:06:00.471Z,11.6
2023-04-08T13:07:00.483Z,11.5
2023-04-08T13:08:00.485Z,11.6
2023-04-08T13:09:00.478Z,11.6
2023-04-08T13:10:00.497Z,11.6
2023-04-08T13:11:00.504Z,11.6
2023-04-08T13:12:00.499Z,11.6
2023-04-08T13:13:00.503Z,11.6
2023-04-08T13:14:00.518Z,11.7
2023-04-08T13:15:00.499Z,11.7
2023-04-08T13:16:00.663Z,11.8
2023-04-08T13:17:00.486Z,11.8
2023-04-08T13:18:00.484Z,11.8
2023-04-08T13:19:00.512Z,11.8
2023-04-08T13:20:00.513Z,11.9
2023-04-08T13:21:00.484Z,11.9
2023-04-08T13:22:00.484Z,11.9
2023-04-08T13:23:00.516Z,11.9
2023-04-08T13:24:00.481Z,12
2023-04-08T13:25:00.524Z,12
2023-04-08T13:26:00.501Z,12
2023-04-08T13:27:00.496Z,12.1
2023-04-08T13:28:00.496Z,12.1
2023-04-08T13:29:01.107Z,11.9
2023-04-08T13:30:00.564Z,11.9
2023-04-08T13:31:00.499Z,11.9
2023-04-08T13:32:00.566Z,11.9
2023-04-08T13:33:00.554Z,12
2023-04-08T13:34:00.532Z,11.9
2023-04-08T13:35:00.526Z,11.9
2023-04-08T13:36:00.548Z,11.9
2023-04-08T13:37:00.512Z,11.9
2023-04-08T13:38:00.501Z,11.9
2023-04-08T13:39:00.524Z,11.9
2023-04-08T13:40:00.544Z,11.8
2023-04-08T13:41:00.510Z,11.8
2023-04-08T13:42:00.508Z,11.8
2023-04-08T13:43:00.510Z,11.7